sensor_id;sensor_type;location;lat;lon;timestamp;pressure;altitude;pressure_sealevel;temperature;humidity
69842;BME280;57138;51.326;-0.068;2024-03-17T00:01:32;100063.25;;;8.62;100.00
69842;BME280;57138;51.326;-0.068;2024-03-17T00:03:57;100072.84;;;8.72;100.00
69842;BME280;57138;51.326;-0.068;2024-03-17T00:06:24;100074.25;;;8.82;100.00
69842;BME280;57138;51.326;-0.068;2024-03-17T00:08:49;100061.38;;;8.71;100.00
69842;BME280;57138;51.326;-0.068;2024-03-17T00:11:15;100046.81;;;8.74;100.00
69842;BME280;57138;51.326;-0.068;2024-03-17T00:13:41;100058.00;;;8.92;100.00
69842;BME280;57138;51.326;-0.068;2024-03-17T00:16:06;100022.66;;;8.60;100.00
69842;BME280;57138;51.326;-0.068;2024-03-17T00:18:32;100032.31;;;8.76;100.00
69842;BME280;57138;51.326;-0.068;2024-03-17T00:20:57;100040.59;;;8.81;100.00
69842;BME280;57138;51.326;-0.068;2024-03-17T00:23:24;100032.78;;;8.80;100.00
69842;BME280;57138;51.326;-0.068;2024-03-17T00:25:49;100021.75;;;8.83;100.00
69842;BME280;57138;51.326;-0.068;2024-03-17T00:28:16;100003.91;;;8.69;100.00
69842;BME280;57138;51.326;-0.068;2024-03-17T00:30:41;100016.31;;;8.76;100.00
69842;BME280;57138;51.326;-0.068;2024-03-17T00:33:08;100034.09;;;8.99;100.00
69842;BME280;57138;51.326;-0.068;2024-03-17T00:35:33;99999.03;;;8.72;100.00
69842;BME280;57138;51.326;-0.068;2024-03-17T00:37:59;100002.19;;;8.76;100.00
69842;BME280;57138;51.326;-0.068;2024-03-17T00:40:25;99980.38;;;8.57;100.00
69842;BME280;57138;51.326;-0.068;2024-03-17T00:42:50;99996.53;;;8.71;100.00
69842;BME280;57138;51.326;-0.068;2024-03-17T00:45:16;99986.72;;;8.71;100.00
69842;BME280;57138;51.326;-0.068;2024-03-17T00:47:41;99987.09;;;8.83;100.00
69842;BME280;57138;51.326;-0.068;2024-03-17T00:50:09;99984.78;;;8.80;100.00
69842;BME280;57138;51.326;-0.068;2024-03-17T00:52:37;100012.03;;;8.90;100.00
69842;BME280;57138;51.326;-0.068;2024-03-17T00:55:02;100001.25;;;8.98;100.00
69842;BME280;57138;51.326;-0.068;2024-03-17T00:57:28;99989.69;;;8.91;100.00
69842;BME280;57138;51.326;-0.068;2024-03-17T00:59:54;100009.00;;;8.93;100.00
69842;BME280;57138;51.326;-0.068;2024-03-17T01:02:19;99964.69;;;8.77;100.00
69842;BME280;57138;51.326;-0.068;2024-03-17T01:04:46;99996.13;;;8.97;100.00
69842;BME280;57138;51.326;-0.068;2024-03-17T01:07:12;99997.03;;;9.04;100.00
69842;BME280;57138;51.326;-0.068;2024-03-17T01:09:38;99994.56;;;9.03;100.00
69842;BME280;57138;51.326;-0.068;2024-03-17T01:12:03;99990.50;;;9.07;100.00
69842;BME280;57138;51.326;-0.068;2024-03-17T01:14:29;99960.38;;;8.91;100.00
69842;BME280;57138;51.326;-0.068;2024-03-17T01:16:56;99984.06;;;9.16;100.00
69842;BME280;57138;51.326;-0.068;2024-03-17T01:19:22;99996.38;;;9.17;100.00
69842;BME280;57138;51.326;-0.068;2024-03-17T01:21:47;99964.75;;;9.14;100.00
69842;BME280;57138;51.326;-0.068;2024-03-17T01:24:13;99977.47;;;9.12;100.00
69842;BME280;57138;51.326;-0.068;2024-03-17T01:26:39;99986.91;;;9.14;100.00
69842;BME280;57138;51.326;-0.068;2024-03-17T01:29:04;99964.19;;;9.04;100.00
69842;BME280;57138;51.326;-0.068;2024-03-17T01:31:30;99983.06;;;9.17;100.00
69842;BME280;57138;51.326;-0.068;2024-03-17T01:33:55;99968.97;;;9.23;100.00
69842;BME280;57138;51.326;-0.068;2024-03-17T01:36:21;99963.63;;;9.23;100.00
69842;BME280;57138;51.326;-0.068;2024-03-17T01:38:46;99903.06;;;8.87;100.00
69842;BME280;57138;51.326;-0.068;2024-03-17T01:41:12;99968.53;;;9.20;100.00
69842;BME280;57138;51.326;-0.068;2024-03-17T01:43:39;99957.19;;;9.32;100.00
69842;BME280;57138;51.326;-0.068;2024-03-17T01:46:05;99921.69;;;9.17;100.00
69842;BME280;57138;51.326;-0.068;2024-03-17T01:48:31;99918.91;;;9.25;100.00
69842;BME280;57138;51.326;-0.068;2024-03-17T01:50:57;99917.66;;;9.21;100.00
69842;BME280;57138;51.326;-0.068;2024-03-17T01:53:23;99920.03;;;9.31;100.00
69842;BME280;57138;51.326;-0.068;2024-03-17T01:55:52;99915.38;;;9.18;100.00
69842;BME280;57138;51.326;-0.068;2024-03-17T01:58:20;99923.56;;;9.16;100.00
69842;BME280;57138;51.326;-0.068;2024-03-17T02:00:47;99923.56;;;9.16;100.00
69842;BME280;57138;51.326;-0.068;2024-03-17T02:03:13;99910.66;;;9.20;100.00
69842;BME280;57138;51.326;-0.068;2024-03-17T02:05:39;99920.41;;;9.28;100.00
69842;BME280;57138;51.326;-0.068;2024-03-17T02:08:07;99934.97;;;9.47;100.00
69842;BME280;57138;51.326;-0.068;2024-03-17T02:10:33;99903.19;;;9.30;100.00
69842;BME280;57138;51.326;-0.068;2024-03-17T02:13:00;99931.41;;;9.40;100.00
69842;BME280;57138;51.326;-0.068;2024-03-17T02:15:26;99897.56;;;9.25;100.00
69842;BME280;57138;51.326;-0.068;2024-03-17T02:17:51;99906.25;;;9.27;100.00
69842;BME280;57138;51.326;-0.068;2024-03-17T02:20:17;99911.75;;;9.26;100.00
69842;BME280;57138;51.326;-0.068;2024-03-17T02:22:43;99910.16;;;9.31;100.00
69842;BME280;57138;51.326;-0.068;2024-03-17T02:25:09;99903.41;;;9.14;100.00
69842;BME280;57138;51.326;-0.068;2024-03-17T02:27:35;99877.38;;;9.16;100.00
69842;BME280;57138;51.326;-0.068;2024-03-17T02:30:04;99900.38;;;9.17;100.00
69842;BME280;57138;51.326;-0.068;2024-03-17T02:32:35;99882.69;;;9.16;100.00
69842;BME280;57138;51.326;-0.068;2024-03-17T02:35:01;99897.31;;;9.20;100.00
69842;BME280;57138;51.326;-0.068;2024-03-17T02:37:26;99881.94;;;9.22;100.00
69842;BME280;57138;51.326;-0.068;2024-03-17T02:39:52;99872.91;;;9.38;100.00
69842;BME280;57138;51.326;-0.068;2024-03-17T02:42:18;99885.03;;;9.41;100.00
69842;BME280;57138;51.326;-0.068;2024-03-17T02:44:44;99872.34;;;9.43;100.00
69842;BME280;57138;51.326;-0.068;2024-03-17T02:47:09;99888.34;;;9.43;100.00
69842;BME280;57138;51.326;-0.068;2024-03-17T02:49:36;99844.53;;;9.15;100.00
69842;BME280;57138;51.326;-0.068;2024-03-17T02:52:08;99865.34;;;9.42;100.00
69842;BME280;57138;51.326;-0.068;2024-03-17T02:54:35;99862.09;;;9.46;100.00
69842;BME280;57138;51.326;-0.068;2024-03-17T02:57:01;99835.44;;;9.10;100.00
69842;BME280;57138;51.326;-0.068;2024-03-17T02:59:26;99868.81;;;9.42;100.00
69842;BME280;57138;51.326;-0.068;2024-03-17T03:01:56;99858.72;;;9.38;100.00
69842;BME280;57138;51.326;-0.068;2024-03-17T03:04:26;99854.13;;;9.31;100.00
69842;BME280;57138;51.326;-0.068;2024-03-17T03:06:52;99873.97;;;9.44;100.00
69842;BME280;57138;51.326;-0.068;2024-03-17T03:09:17;99877.69;;;9.43;100.00
69842;BME280;57138;51.326;-0.068;2024-03-17T03:11:51;99860.81;;;9.42;100.00
69842;BME280;57138;51.326;-0.068;2024-03-17T03:14:17;99876.78;;;9.57;100.00
69842;BME280;57138;51.326;-0.068;2024-03-17T03:16:42;99868.69;;;9.50;100.00
69842;BME280;57138;51.326;-0.068;2024-03-17T03:19:09;99853.16;;;9.54;100.00
69842;BME280;57138;51.326;-0.068;2024-03-17T03:21:34;99865.06;;;9.58;100.00
69842;BME280;57138;51.326;-0.068;2024-03-17T03:24:00;99850.63;;;9.46;100.00
69842;BME280;57138;51.326;-0.068;2024-03-17T03:26:25;99848.28;;;9.64;100.00
69842;BME280;57138;51.326;-0.068;2024-03-17T03:28:50;99836.22;;;9.68;100.00
69842;BME280;57138;51.326;-0.068;2024-03-17T03:31:16;99826.31;;;9.62;100.00
69842;BME280;57138;51.326;-0.068;2024-03-17T03:33:43;99845.13;;;9.76;100.00
69842;BME280;57138;51.326;-0.068;2024-03-17T03:38:35;99836.09;;;9.77;100.00
69842;BME280;57138;51.326;-0.068;2024-03-17T03:41:09;99846.56;;;9.78;100.00
69842;BME280;57138;51.326;-0.068;2024-03-17T03:43:35;99848.34;;;9.93;100.00
69842;BME280;57138;51.326;-0.068;2024-03-17T03:46:01;99850.19;;;9.92;100.00
69842;BME280;57138;51.326;-0.068;2024-03-17T03:48:27;99842.66;;;9.74;100.00
69842;BME280;57138;51.326;-0.068;2024-03-17T03:50:52;99825.34;;;9.70;100.00
69842;BME280;57138;51.326;-0.068;2024-03-17T03:53:19;99839.88;;;9.89;100.00
69842;BME280;57138;51.326;-0.068;2024-03-17T03:55:45;99820.22;;;9.97;100.00
69842;BME280;57138;51.326;-0.068;2024-03-17T03:58:10;99815.63;;;9.84;100.00
69842;BME280;57138;51.326;-0.068;2024-03-17T04:00:38;99828.19;;;9.90;100.00
69842;BME280;57138;51.326;-0.068;2024-03-17T04:03:04;99813.56;;;9.86;100.00
69842;BME280;57138;51.326;-0.068;2024-03-17T04:05:31;99807.81;;;9.82;100.00
69842;BME280;57138;51.326;-0.068;2024-03-17T04:07:56;99802.50;;;9.89;100.00
69842;BME280;57138;51.326;-0.068;2024-03-17T04:10:22;99816.34;;;9.99;100.00
69842;BME280;57138;51.326;-0.068;2024-03-17T04:12:49;99812.88;;;9.99;100.00
69842;BME280;57138;51.326;-0.068;2024-03-17T04:15:14;99806.28;;;10.01;100.00
69842;BME280;57138;51.326;-0.068;2024-03-17T04:17:40;99766.53;;;9.85;100.00
69842;BME280;57138;51.326;-0.068;2024-03-17T04:20:07;99793.97;;;10.00;100.00
69842;BME280;57138;51.326;-0.068;2024-03-17T04:22:34;99795.84;;;10.06;100.00
69842;BME280;57138;51.326;-0.068;2024-03-17T04:24:59;99790.34;;;10.15;100.00
69842;BME280;57138;51.326;-0.068;2024-03-17T04:27:28;99782.75;;;10.12;100.00
69842;BME280;57138;51.326;-0.068;2024-03-17T04:29:54;99794.63;;;10.09;100.00
69842;BME280;57138;51.326;-0.068;2024-03-17T04:32:21;99781.53;;;9.86;100.00
69842;BME280;57138;51.326;-0.068;2024-03-17T04:34:46;99785.53;;;10.03;100.00
69842;BME280;57138;51.326;-0.068;2024-03-17T04:37:12;99773.44;;;10.07;100.00
69842;BME280;57138;51.326;-0.068;2024-03-17T04:39:42;99783.84;;;10.24;100.00
69842;BME280;57138;51.326;-0.068;2024-03-17T04:42:14;99784.69;;;10.31;100.00
69842;BME280;57138;51.326;-0.068;2024-03-17T04:44:41;99781.56;;;10.21;100.00
69842;BME280;57138;51.326;-0.068;2024-03-17T04:47:07;99767.91;;;10.09;100.00
69842;BME280;57138;51.326;-0.068;2024-03-17T04:49:36;99766.53;;;10.20;100.00
69842;BME280;57138;51.326;-0.068;2024-03-17T04:52:01;99787.03;;;10.13;100.00
69842;BME280;57138;51.326;-0.068;2024-03-17T04:54:27;99793.25;;;10.20;100.00
69842;BME280;57138;51.326;-0.068;2024-03-17T04:56:52;99792.44;;;10.19;100.00
69842;BME280;57138;51.326;-0.068;2024-03-17T04:59:18;99785.84;;;10.22;100.00
69842;BME280;57138;51.326;-0.068;2024-03-17T05:01:44;99779.31;;;10.24;100.00
69842;BME280;57138;51.326;-0.068;2024-03-17T05:04:09;99771.06;;;10.19;100.00
69842;BME280;57138;51.326;-0.068;2024-03-17T05:06:35;99764.63;;;10.07;100.00
69842;BME280;57138;51.326;-0.068;2024-03-17T05:09:00;99783.06;;;10.30;100.00
69842;BME280;57138;51.326;-0.068;2024-03-17T05:11:25;99756.81;;;10.05;100.00
69842;BME280;57138;51.326;-0.068;2024-03-17T05:13:51;99784.75;;;10.10;100.00
69842;BME280;57138;51.326;-0.068;2024-03-17T05:16:17;99762.56;;;10.09;100.00
69842;BME280;57138;51.326;-0.068;2024-03-17T05:18:42;99752.97;;;10.15;100.00
69842;BME280;57138;51.326;-0.068;2024-03-17T05:21:08;99776.41;;;10.19;100.00
69842;BME280;57138;51.326;-0.068;2024-03-17T05:23:35;99777.63;;;10.17;100.00
69842;BME280;57138;51.326;-0.068;2024-03-17T05:26:01;99764.09;;;10.25;100.00
69842;BME280;57138;51.326;-0.068;2024-03-17T05:28:30;99745.16;;;10.20;100.00
69842;BME280;57138;51.326;-0.068;2024-03-17T05:30:55;99775.66;;;10.32;100.00
69842;BME280;57138;51.326;-0.068;2024-03-17T05:33:22;99752.69;;;10.10;100.00
69842;BME280;57138;51.326;-0.068;2024-03-17T05:35:53;99762.41;;;10.17;100.00
69842;BME280;57138;51.326;-0.068;2024-03-17T05:38:23;99761.59;;;10.17;100.00
69842;BME280;57138;51.326;-0.068;2024-03-17T05:41:08;99784.69;;;10.31;100.00
69842;BME280;57138;51.326;-0.068;2024-03-17T05:43:37;99785.66;;;10.23;100.00
69842;BME280;57138;51.326;-0.068;2024-03-17T05:46:08;99785.00;;;10.15;100.00
69842;BME280;57138;51.326;-0.068;2024-03-17T05:48:38;99782.97;;;10.17;100.00
69842;BME280;57138;51.326;-0.068;2024-03-17T05:51:05;99780.50;;;10.15;100.00
69842;BME280;57138;51.326;-0.068;2024-03-17T05:53:31;99773.44;;;10.07;100.00
69842;BME280;57138;51.326;-0.068;2024-03-17T05:56:02;99776.59;;;10.18;100.00
69842;BME280;57138;51.326;-0.068;2024-03-17T05:58:28;99761.56;;;10.10;100.00
69842;BME280;57138;51.326;-0.068;2024-03-17T06:00:53;99749.78;;;9.98;100.00
69842;BME280;57138;51.326;-0.068;2024-03-17T06:03:19;99764.47;;;10.15;100.00
69842;BME280;57138;51.326;-0.068;2024-03-17T06:05:44;99773.44;;;10.07;100.00
69842;BME280;57138;51.326;-0.068;2024-03-17T06:08:11;99761.50;;;10.03;100.00
69842;BME280;57138;51.326;-0.068;2024-03-17T06:10:37;99758.22;;;10.01;100.00
69842;BME280;57138;51.326;-0.068;2024-03-17T06:13:03;99750.59;;;9.98;100.00
69842;BME280;57138;51.326;-0.068;2024-03-17T06:15:30;99773.56;;;10.28;100.00
69842;BME280;57138;51.326;-0.068;2024-03-17T06:17:55;99776.63;;;10.24;100.00
69842;BME280;57138;51.326;-0.068;2024-03-17T06:20:22;99748.00;;;10.12;100.00
69842;BME280;57138;51.326;-0.068;2024-03-17T06:22:49;99758.31;;;10.15;100.00
69842;BME280;57138;51.326;-0.068;2024-03-17T06:25:14;99753.75;;;10.08;100.00
69842;BME280;57138;51.326;-0.068;2024-03-17T06:27:40;99756.25;;;10.17;100.00
69842;BME280;57138;51.326;-0.068;2024-03-17T06:30:06;99756.16;;;10.03;100.00
69842;BME280;57138;51.326;-0.068;2024-03-17T06:32:34;99763.66;;;10.15;100.00
69842;BME280;57138;51.326;-0.068;2024-03-17T06:35:03;99746.44;;;10.24;100.00
69842;BME280;57138;51.326;-0.068;2024-03-17T06:37:29;99739.66;;;10.28;100.00
69842;BME280;57138;51.326;-0.068;2024-03-17T06:39:54;99764.19;;;10.38;100.00
69842;BME280;57138;51.326;-0.068;2024-03-17T06:42:20;99750.53;;;10.26;100.00
69842;BME280;57138;51.326;-0.068;2024-03-17T06:44:45;99745.28;;;10.40;100.00
69842;BME280;57138;51.326;-0.068;2024-03-17T06:47:12;99731.19;;;10.18;100.00
69842;BME280;57138;51.326;-0.068;2024-03-17T06:49:37;99750.25;;;10.43;100.00
69842;BME280;57138;51.326;-0.068;2024-03-17T06:52:03;99733.69;;;10.26;100.00
69842;BME280;57138;51.326;-0.068;2024-03-17T06:54:28;99726.69;;;10.25;100.00
69842;BME280;57138;51.326;-0.068;2024-03-17T06:56:54;99725.06;;;10.24;100.00
69842;BME280;57138;51.326;-0.068;2024-03-17T06:59:19;99741.38;;;10.36;100.00
69842;BME280;57138;51.326;-0.068;2024-03-17T07:01:46;99725.91;;;10.31;100.00
69842;BME280;57138;51.326;-0.068;2024-03-17T07:04:15;99714.28;;;10.11;100.00
69842;BME280;57138;51.326;-0.068;2024-03-17T07:06:42;99741.16;;;10.37;100.00
69842;BME280;57138;51.326;-0.068;2024-03-17T07:09:07;99726.75;;;10.32;100.00
69842;BME280;57138;51.326;-0.068;2024-03-17T07:11:33;99717.25;;;10.22;100.00
69842;BME280;57138;51.326;-0.068;2024-03-17T07:13:59;99691.31;;;10.16;100.00
69842;BME280;57138;51.326;-0.068;2024-03-17T07:16:24;99714.31;;;10.17;100.00
69842;BME280;57138;51.326;-0.068;2024-03-17T07:18:53;99726.56;;;10.33;100.00
69842;BME280;57138;51.326;-0.068;2024-03-17T07:21:18;99700.38;;;10.22;100.00
69842;BME280;57138;51.326;-0.068;2024-03-17T07:23:44;99721.03;;;10.35;100.00
69842;BME280;57138;51.326;-0.068;2024-03-17T07:26:10;99731.34;;;10.45;100.00
69842;BME280;57138;51.326;-0.068;2024-03-17T07:28:36;99716.84;;;10.25;100.00
69842;BME280;57138;51.326;-0.068;2024-03-17T07:31:06;99726.56;;;10.33;100.00
69842;BME280;57138;51.326;-0.068;2024-03-17T07:33:33;99716.28;;;10.37;100.00
69842;BME280;57138;51.326;-0.068;2024-03-17T07:35:58;99697.09;;;10.26;100.00
69842;BME280;57138;51.326;-0.068;2024-03-17T07:38:29;99724.81;;;10.60;100.00
69842;BME280;57138;51.326;-0.068;2024-03-17T07:41:02;99692.66;;;10.40;100.00
69842;BME280;57138;51.326;-0.068;2024-03-17T07:43:31;99724.59;;;10.55;100.00
69842;BME280;57138;51.326;-0.068;2024-03-17T07:46:04;99697.59;;;10.43;100.00
69842;BME280;57138;51.326;-0.068;2024-03-17T07:48:31;99709.97;;;10.45;100.00
69842;BME280;57138;51.326;-0.068;2024-03-17T07:51:11;99709.16;;;10.51;100.00
69842;BME280;57138;51.326;-0.068;2024-03-17T07:53:40;99704.78;;;10.36;100.00
69842;BME280;57138;51.326;-0.068;2024-03-17T07:56:17;99704.63;;;10.58;100.00
69842;BME280;57138;51.326;-0.068;2024-03-17T07:58:43;99693.13;;;10.64;100.00
69842;BME280;57138;51.326;-0.068;2024-03-17T08:01:11;99705.47;;;10.58;100.00
69842;BME280;57138;51.326;-0.068;2024-03-17T08:03:38;99696.19;;;10.48;100.00
69842;BME280;57138;51.326;-0.068;2024-03-17T08:06:07;99688.19;;;10.54;100.00
69842;BME280;57138;51.326;-0.068;2024-03-17T08:08:34;99663.50;;;10.46;100.00
69842;BME280;57138;51.326;-0.068;2024-03-17T08:11:00;99691.09;;;10.66;100.00
69842;BME280;57138;51.326;-0.068;2024-03-17T08:13:31;99690.66;;;10.63;100.00
69842;BME280;57138;51.326;-0.068;2024-03-17T08:16:05;99670.94;;;10.64;100.00
69842;BME280;57138;51.326;-0.068;2024-03-17T08:18:32;99689.47;;;10.72;100.00
69842;BME280;57138;51.326;-0.068;2024-03-17T08:20:59;99673.00;;;10.68;100.00
69842;BME280;57138;51.326;-0.068;2024-03-17T08:23:25;99671.34;;;10.67;100.00
69842;BME280;57138;51.326;-0.068;2024-03-17T08:28:24;99683.09;;;10.79;100.00
69842;BME280;57138;51.326;-0.068;2024-03-17T08:31:00;99671.78;;;10.77;100.00
69842;BME280;57138;51.326;-0.068;2024-03-17T08:33:27;99689.06;;;10.75;100.00
69842;BME280;57138;51.326;-0.068;2024-03-17T08:35:54;99666.81;;;10.61;100.00
69842;BME280;57138;51.326;-0.068;2024-03-17T08:38:20;99672.00;;;10.69;100.00
69842;BME280;57138;51.326;-0.068;2024-03-17T08:40:47;99684.53;;;10.75;100.00
69842;BME280;57138;51.326;-0.068;2024-03-17T08:43:12;99678.38;;;10.82;100.00
69842;BME280;57138;51.326;-0.068;2024-03-17T08:45:37;99675.88;;;10.67;100.00
69842;BME280;57138;51.326;-0.068;2024-03-17T08:48:03;99679.16;;;10.62;100.00
69842;BME280;57138;51.326;-0.068;2024-03-17T08:50:29;99674.47;;;10.77;100.00
69842;BME280;57138;51.326;-0.068;2024-03-17T08:52:58;99668.91;;;10.72;100.00
69842;BME280;57138;51.326;-0.068;2024-03-17T08:55:23;99671.34;;;10.67;100.00
69842;BME280;57138;51.326;-0.068;2024-03-17T08:57:49;99660.47;;;10.75;100.00
69842;BME280;57138;51.326;-0.068;2024-03-17T09:00:14;99654.50;;;10.73;100.00
69842;BME280;57138;51.326;-0.068;2024-03-17T09:02:40;99655.75;;;10.77;100.00
69842;BME280;57138;51.326;-0.068;2024-03-17T09:05:06;99651.25;;;10.85;100.00
69842;BME280;57138;51.326;-0.068;2024-03-17T09:07:32;99664.81;;;10.90;100.00
69842;BME280;57138;51.326;-0.068;2024-03-17T09:09:58;99663.56;;;10.79;100.00
69842;BME280;57138;51.326;-0.068;2024-03-17T09:12:24;99650.81;;;10.74;100.00
69842;BME280;57138;51.326;-0.068;2024-03-17T09:14:50;99638.84;;;10.70;100.00
69842;BME280;57138;51.326;-0.068;2024-03-17T09:17:15;99652.88;;;10.86;100.00
69842;BME280;57138;51.326;-0.068;2024-03-17T09:19:41;99652.69;;;10.94;100.00
69842;BME280;57138;51.326;-0.068;2024-03-17T09:22:06;99666.06;;;10.94;100.00
69842;BME280;57138;51.326;-0.068;2024-03-17T09:24:31;99662.34;;;10.95;100.00
69842;BME280;57138;51.326;-0.068;2024-03-17T09:26:57;99654.94;;;10.84;100.00
69842;BME280;57138;51.326;-0.068;2024-03-17T09:29:22;99664.59;;;10.85;100.00
69842;BME280;57138;51.326;-0.068;2024-03-17T09:31:49;99646.91;;;10.77;100.00
69842;BME280;57138;51.326;-0.068;2024-03-17T09:34:15;99652.88;;;10.86;100.00
69842;BME280;57138;51.326;-0.068;2024-03-17T09:36:40;99652.91;;;10.92;100.00
69842;BME280;57138;51.326;-0.068;2024-03-17T09:39:05;99657.00;;;10.88;100.00
69842;BME280;57138;51.326;-0.068;2024-03-17T09:41:31;99653.72;;;10.93;100.00
69842;BME280;57138;51.326;-0.068;2024-03-17T09:43:58;99658.66;;;11.03;100.00
69842;BME280;57138;51.326;-0.068;2024-03-17T09:46:25;99656.19;;;10.88;100.00
69842;BME280;57138;51.326;-0.068;2024-03-17T09:48:51;99635.16;;;10.71;100.00
69842;BME280;57138;51.326;-0.068;2024-03-17T09:51:22;99654.53;;;10.93;100.00
69842;BME280;57138;51.326;-0.068;2024-03-17T09:53:48;99625.31;;;10.85;100.00
69842;BME280;57138;51.326;-0.068;2024-03-17T09:56:18;99654.53;;;11.00;100.00
69842;BME280;57138;51.326;-0.068;2024-03-17T09:58:47;99658.25;;;10.99;100.00
69842;BME280;57138;51.326;-0.068;2024-03-17T10:01:13;99636.00;;;10.92;100.00
69842;BME280;57138;51.326;-0.068;2024-03-17T10:03:49;99653.91;;;10.98;100.00
69842;BME280;57138;51.326;-0.068;2024-03-17T10:06:23;99655.94;;;10.83;100.00
69842;BME280;57138;51.326;-0.068;2024-03-17T10:08:54;99658.03;;;10.94;100.00
69842;BME280;57138;51.326;-0.068;2024-03-17T10:11:21;99651.66;;;11.02;100.00
69842;BME280;57138;51.326;-0.068;2024-03-17T10:14:02;99640.56;;;11.05;100.00
69842;BME280;57138;51.326;-0.068;2024-03-17T10:16:30;99644.63;;;10.87;100.00
69842;BME280;57138;51.326;-0.068;2024-03-17T10:19:22;99629.84;;;10.91;100.00
69842;BME280;57138;51.326;-0.068;2024-03-17T10:21:49;99623.66;;;10.97;100.00
69842;BME280;57138;51.326;-0.068;2024-03-17T10:24:25;99615.03;;;10.95;100.00
69842;BME280;57138;51.326;-0.068;2024-03-17T10:26:52;99625.72;;;10.89;100.00
69842;BME280;57138;51.326;-0.068;2024-03-17T10:29:20;99615.44;;;10.72;100.00
69842;BME280;57138;51.326;-0.068;2024-03-17T10:34:22;99588.91;;;10.77;100.00
69842;BME280;57138;51.326;-0.068;2024-03-17T10:36:52;99606.81;;;10.97;100.00
69842;BME280;57138;51.326;-0.068;2024-03-17T10:39:30;99623.44;;;11.12;100.00
69842;BME280;57138;51.326;-0.068;2024-03-17T10:42:01;99601.22;;;11.19;100.00
69842;BME280;57138;51.326;-0.068;2024-03-17T10:44:28;99615.00;;;11.15;100.00
69842;BME280;57138;51.326;-0.068;2024-03-17T10:46:57;99608.81;;;11.35;100.00
69842;BME280;57138;51.326;-0.068;2024-03-17T10:49:28;99616.44;;;11.25;100.00
69842;BME280;57138;51.326;-0.068;2024-03-17T10:51:58;99626.94;;;11.26;100.00
69842;BME280;57138;51.326;-0.068;2024-03-17T10:54:25;99617.50;;;11.24;100.00
69842;BME280;57138;51.326;-0.068;2024-03-17T10:59:47;99615.63;;;11.38;100.00
69842;BME280;57138;51.326;-0.068;2024-03-17T11:02:24;99616.00;;;11.41;100.00
69842;BME280;57138;51.326;-0.068;2024-03-17T11:04:55;99599.75;;;11.36;100.00
69842;BME280;57138;51.326;-0.068;2024-03-17T11:07:21;99617.41;;;11.57;100.00
69842;BME280;57138;51.326;-0.068;2024-03-17T11:09:48;99612.91;;;11.44;100.00
69842;BME280;57138;51.326;-0.068;2024-03-17T11:17:50;99612.50;;;11.47;100.00
69842;BME280;57138;51.326;-0.068;2024-03-17T11:20:24;99603.88;;;11.32;100.00
69842;BME280;57138;51.326;-0.068;2024-03-17T11:22:55;99597.28;;;11.41;100.00
69842;BME280;57138;51.326;-0.068;2024-03-17T11:27:52;99610.00;;;11.52;100.00
69842;BME280;57138;51.326;-0.068;2024-03-17T11:30:49;99610.44;;;11.56;100.00
69842;BME280;57138;51.326;-0.068;2024-03-17T11:38:53;99593.13;;;11.52;100.00
69842;BME280;57138;51.326;-0.068;2024-03-17T11:46:53;99585.69;;;11.67;100.00
69842;BME280;57138;51.326;-0.068;2024-03-17T11:49:37;99581.72;;;11.70;100.00
69842;BME280;57138;51.326;-0.068;2024-03-17T11:52:23;99606.69;;;11.57;100.00
69842;BME280;57138;51.326;-0.068;2024-03-17T11:54:48;99599.22;;;11.79;100.00
69842;BME280;57138;51.326;-0.068;2024-03-17T11:57:22;99556.59;;;11.71;100.00
69842;BME280;57138;51.326;-0.068;2024-03-17T11:59:48;99571.59;;;11.85;100.00
69842;BME280;57138;51.326;-0.068;2024-03-17T12:02:20;99591.34;;;11.98;100.00
69842;BME280;57138;51.326;-0.068;2024-03-17T12:04:47;99607.28;;;12.25;100.00
69842;BME280;57138;51.326;-0.068;2024-03-17T12:07:15;99584.09;;;12.05;100.00
69842;BME280;57138;51.326;-0.068;2024-03-17T12:09:42;99588.03;;;12.02;100.00
69842;BME280;57138;51.326;-0.068;2024-03-17T12:12:18;99598.22;;;12.26;100.00
69842;BME280;57138;51.326;-0.068;2024-03-17T12:14:44;99603.47;;;12.46;100.00
69842;BME280;57138;51.326;-0.068;2024-03-17T12:17:12;99590.72;;;12.41;100.00
69842;BME280;57138;51.326;-0.068;2024-03-17T12:19:40;99588.19;;;12.46;100.00
69842;BME280;57138;51.326;-0.068;2024-03-17T12:22:08;99564.94;;;12.40;100.00
69842;BME280;57138;51.326;-0.068;2024-03-17T12:24:35;99591.81;;;12.58;100.00
69842;BME280;57138;51.326;-0.068;2024-03-17T12:27:05;99602.47;;;12.72;100.00
69842;BME280;57138;51.326;-0.068;2024-03-17T12:29:38;99596.66;;;12.75;100.00
69842;BME280;57138;51.326;-0.068;2024-03-17T12:32:16;99595.13;;;12.61;100.00
69842;BME280;57138;51.326;-0.068;2024-03-17T12:34:44;99593.03;;;12.63;100.00
69842;BME280;57138;51.326;-0.068;2024-03-17T12:37:16;99593.78;;;12.70;100.00
69842;BME280;57138;51.326;-0.068;2024-03-17T12:39:43;99586.19;;;12.67;100.00
69842;BME280;57138;51.326;-0.068;2024-03-17T12:44:54;99578.84;;;12.81;100.00
69842;BME280;57138;51.326;-0.068;2024-03-17T12:47:21;99588.34;;;12.83;100.00
69842;BME280;57138;51.326;-0.068;2024-03-17T12:50:02;99586.25;;;12.85;100.00
69842;BME280;57138;51.326;-0.068;2024-03-17T12:52:34;99564.69;;;12.99;100.00
69842;BME280;57138;51.326;-0.068;2024-03-17T12:55:05;99576.50;;;13.16;100.00
69842;BME280;57138;51.326;-0.068;2024-03-17T13:00:46;99572.16;;;12.97;100.00
69842;BME280;57138;51.326;-0.068;2024-03-17T13:03:24;99552.47;;;13.03;100.00
69842;BME280;57138;51.326;-0.068;2024-03-17T13:05:50;99566.81;;;13.15;100.00
69842;BME280;57138;51.326;-0.068;2024-03-17T13:08:16;99548.66;;;12.92;100.00
69842;BME280;57138;51.326;-0.068;2024-03-17T13:10:42;99540.59;;;12.67;100.00
69842;BME280;57138;51.326;-0.068;2024-03-17T13:13:09;99566.00;;;12.89;100.00
69842;BME280;57138;51.326;-0.068;2024-03-17T13:15:35;99519.47;;;12.77;100.00
69842;BME280;57138;51.326;-0.068;2024-03-17T13:18:02;99545.09;;;12.98;100.00
69842;BME280;57138;51.326;-0.068;2024-03-17T13:20:29;99560.75;;;13.20;100.00